DNO063 LGML-LGPA
Flight info
| Callsign | DNO063 |
|---|---|
| Flight time | 0h 20m |
| Altitude | 5500 |
| Route | MIL EROTU ANTIPAROS |
| Aircraft | C208/L-SDFGR/C |
Departure
| Time | 2026-04-16 06:08 |
|---|---|
| Airport | Milos Airport (LGML) |
Arrival
| Time | 2026-04-16 06:29 |
|---|---|
| Airport | Paros National Airport (LGPA) |
| Time | Latitude | Longitude | Altitude | Speed | Heading |
|---|---|---|---|---|---|
| 2026-04-16 05:58 | 36.69715 | 24.47112 | 21 ft | 0 kts | 210° |
| 2026-04-16 06:05 | 36.69708 | 24.47133 | 21 ft | 9 kts | 85° |
| 2026-04-16 06:06 | 36.69690 | 24.47209 | 23 ft | 9 kts | 127° |
| 2026-04-16 06:06 | 36.69652 | 24.47199 | 21 ft | 15 kts | 257° |
| 2026-04-16 06:06 | 36.69627 | 24.47055 | 20 ft | 14 kts | 252° |
| 2026-04-16 06:06 | 36.69631 | 24.47029 | 20 ft | 0 kts | 83° |
| 2026-04-16 06:07 | 36.69631 | 24.47031 | 20 ft | 2 kts | 83° |
| 2026-04-16 06:07 | 36.69646 | 24.47207 | 21 ft | 49 kts | 83° |
| 2026-04-16 06:08 | 36.69704 | 24.47869 | 49 ft | 99 kts | 83° |
| 2026-04-16 06:08 | 36.69770 | 24.48750 | 388 ft | 103 kts | 82° |
| 2026-04-16 06:08 | 36.69890 | 24.49655 | 721 ft | 111 kts | 69° |
| 2026-04-16 06:08 | 36.70424 | 24.50351 | 1061 ft | 120 kts | 14° |
| 2026-04-16 06:09 | 36.71289 | 24.50271 | 1423 ft | 128 kts | 350° |
| 2026-04-16 06:09 | 36.72182 | 24.50208 | 1863 ft | 129 kts | 8° |
| 2026-04-16 06:09 | 36.73007 | 24.50607 | 2317 ft | 127 kts | 36° |
| 2026-04-16 06:09 | 36.73748 | 24.51215 | 2758 ft | 127 kts | 34° |
| 2026-04-16 06:10 | 36.74484 | 24.51797 | 3195 ft | 122 kts | 34° |
| 2026-04-16 06:10 | 36.75055 | 24.52497 | 3633 ft | 111 kts | 56° |
| 2026-04-16 06:10 | 36.75526 | 24.53257 | 3950 ft | 113 kts | 52° |
| 2026-04-16 06:10 | 36.76025 | 24.54032 | 4194 ft | 118 kts | 54° |
| 2026-04-16 06:11 | 36.76550 | 24.54860 | 4449 ft | 122 kts | 54° |
| 2026-04-16 06:11 | 36.77081 | 24.55700 | 4702 ft | 125 kts | 55° |
| 2026-04-16 06:11 | 36.77616 | 24.56546 | 4951 ft | 126 kts | 55° |
| 2026-04-16 06:11 | 36.78171 | 24.57425 | 5209 ft | 129 kts | 55° |
| 2026-04-16 06:12 | 36.78737 | 24.58321 | 5454 ft | 132 kts | 56° |
| 2026-04-16 06:12 | 36.79326 | 24.59254 | 5501 ft | 146 kts | 55° |
| 2026-04-16 06:12 | 36.79982 | 24.60283 | 5509 ft | 155 kts | 55° |
| 2026-04-16 06:12 | 36.80666 | 24.61353 | 5508 ft | 160 kts | 55° |
| 2026-04-16 06:13 | 36.81361 | 24.62446 | 5507 ft | 161 kts | 55° |
| 2026-04-16 06:13 | 36.82058 | 24.63552 | 5508 ft | 163 kts | 55° |
| 2026-04-16 06:13 | 36.82761 | 24.64659 | 5508 ft | 163 kts | 55° |
| 2026-04-16 06:13 | 36.83466 | 24.65776 | 5509 ft | 164 kts | 55° |
| 2026-04-16 06:14 | 36.84174 | 24.66894 | 5509 ft | 164 kts | 55° |
| 2026-04-16 06:14 | 36.84881 | 24.68011 | 5508 ft | 164 kts | 55° |
| 2026-04-16 06:14 | 36.85586 | 24.69131 | 5506 ft | 164 kts | 55° |
| 2026-04-16 06:14 | 36.86292 | 24.70252 | 5504 ft | 164 kts | 55° |
| 2026-04-16 06:15 | 36.86995 | 24.71369 | 5501 ft | 164 kts | 55° |
| 2026-04-16 06:15 | 36.87694 | 24.72477 | 5498 ft | 164 kts | 55° |
| 2026-04-16 06:15 | 36.88399 | 24.73594 | 5498 ft | 164 kts | 55° |
| 2026-04-16 06:15 | 36.89103 | 24.74714 | 5497 ft | 164 kts | 55° |
| 2026-04-16 06:16 | 36.89808 | 24.75833 | 5496 ft | 164 kts | 55° |
| 2026-04-16 06:16 | 36.90513 | 24.76954 | 5494 ft | 164 kts | 55° |
| 2026-04-16 06:16 | 36.91220 | 24.78078 | 5493 ft | 165 kts | 55° |
| 2026-04-16 06:16 | 36.91932 | 24.79209 | 5492 ft | 166 kts | 55° |
| 2026-04-16 06:17 | 36.92644 | 24.80338 | 5491 ft | 165 kts | 55° |
| 2026-04-16 06:17 | 36.93352 | 24.81467 | 5492 ft | 165 kts | 55° |
| 2026-04-16 06:17 | 36.94058 | 24.82595 | 5452 ft | 165 kts | 55° |
| 2026-04-16 06:17 | 36.94772 | 24.83726 | 5317 ft | 165 kts | 55° |
| 2026-04-16 06:18 | 36.95491 | 24.84851 | 5197 ft | 165 kts | 54° |
| 2026-04-16 06:18 | 36.96080 | 24.86063 | 5073 ft | 161 kts | 67° |
| 2026-04-16 06:18 | 36.96562 | 24.87316 | 4943 ft | 159 kts | 66° |
| 2026-04-16 06:18 | 36.97056 | 24.88552 | 4813 ft | 158 kts | 65° |
| 2026-04-16 06:19 | 36.97550 | 24.89776 | 4684 ft | 158 kts | 65° |
| 2026-04-16 06:19 | 36.98043 | 24.90997 | 4557 ft | 157 kts | 65° |
| 2026-04-16 06:19 | 36.98526 | 24.92198 | 4434 ft | 157 kts | 65° |
| 2026-04-16 06:19 | 36.99021 | 24.93432 | 4307 ft | 156 kts | 65° |
| 2026-04-16 06:20 | 36.99504 | 24.94630 | 4182 ft | 156 kts | 65° |
| 2026-04-16 06:20 | 36.99999 | 24.95862 | 4052 ft | 156 kts | 64° |
| 2026-04-16 06:20 | 37.00488 | 24.97078 | 3925 ft | 157 kts | 64° |
| 2026-04-16 06:20 | 37.00977 | 24.98295 | 3798 ft | 157 kts | 64° |
| 2026-04-16 06:21 | 37.01468 | 24.99517 | 3671 ft | 158 kts | 64° |
| 2026-04-16 06:21 | 37.01953 | 25.00726 | 3546 ft | 157 kts | 66° |
| 2026-04-16 06:21 | 37.01985 | 25.02047 | 3511 ft | 156 kts | 112° |
| 2026-04-16 06:21 | 37.01177 | 25.02894 | 3510 ft | 157 kts | 163° |
| 2026-04-16 06:22 | 37.00090 | 25.03106 | 3508 ft | 159 kts | 170° |
| 2026-04-16 06:22 | 36.98994 | 25.03307 | 3504 ft | 158 kts | 170° |
| 2026-04-16 06:22 | 36.97901 | 25.03498 | 3440 ft | 161 kts | 170° |
| 2026-04-16 06:22 | 36.96772 | 25.03702 | 3317 ft | 166 kts | 170° |
| 2026-04-16 06:23 | 36.95621 | 25.03908 | 3197 ft | 168 kts | 170° |
| 2026-04-16 06:23 | 36.94463 | 25.04120 | 3074 ft | 168 kts | 169° |
| 2026-04-16 06:23 | 36.93393 | 25.04652 | 2933 ft | 166 kts | 142° |
| 2026-04-16 06:23 | 36.92687 | 25.05745 | 2795 ft | 163 kts | 114° |
| 2026-04-16 06:24 | 36.92336 | 25.07063 | 2662 ft | 158 kts | 94° |
| 2026-04-16 06:24 | 36.92323 | 25.08423 | 2526 ft | 156 kts | 83° |
| 2026-04-16 06:24 | 36.92504 | 25.09752 | 2405 ft | 155 kts | 72° |
| 2026-04-16 06:24 | 36.92888 | 25.10993 | 2277 ft | 152 kts | 62° |
| 2026-04-16 06:25 | 36.93409 | 25.12082 | 2135 ft | 137 kts | 50° |
| 2026-04-16 06:25 | 36.94093 | 25.12789 | 1973 ft | 123 kts | 23° |
| 2026-04-16 06:25 | 36.94898 | 25.13038 | 1823 ft | 117 kts | 11° |
| 2026-04-16 06:25 | 36.95696 | 25.12953 | 1679 ft | 116 kts | 352° |
| 2026-04-16 06:26 | 36.96441 | 25.12663 | 1566 ft | 108 kts | 349° |
| 2026-04-16 06:26 | 36.97130 | 25.12429 | 1523 ft | 93 kts | 358° |
| 2026-04-16 06:26 | 36.97717 | 25.12319 | 1410 ft | 83 kts | 2° |
| 2026-04-16 06:26 | 36.98274 | 25.12214 | 1263 ft | 81 kts | 359° |
| 2026-04-16 06:27 | 36.98793 | 25.12104 | 1057 ft | 73 kts | 356° |
| 2026-04-16 06:27 | 36.99288 | 25.11957 | 847 ft | 72 kts | 353° |
| 2026-04-16 06:27 | 36.99762 | 25.11842 | 679 ft | 69 kts | 358° |
| 2026-04-16 06:27 | 37.00222 | 25.11755 | 499 ft | 66 kts | 347° |
| 2026-04-16 06:28 | 37.00632 | 25.11634 | 371 ft | 56 kts | 358° |
| 2026-04-16 06:28 | 37.01006 | 25.11568 | 291 ft | 52 kts | 1° |
| 2026-04-16 06:28 | 37.01389 | 25.11470 | 201 ft | 63 kts | 354° |
| 2026-04-16 06:28 | 37.01832 | 25.11378 | 138 ft | 64 kts | 354° |
| 2026-04-16 06:29 | 37.02180 | 25.11284 | 139 ft | 14 kts | 341° |
| 2026-04-16 06:29 | 37.02282 | 25.11257 | 139 ft | 9 kts | 323° |
| 2026-04-16 06:29 | 37.02271 | 25.11271 | 139 ft | 13 kts | 172° |
| 2026-04-16 06:29 | 37.02175 | 25.11296 | 139 ft | 13 kts | 151° |
| 2026-04-16 06:30 | 37.02108 | 25.11396 | 139 ft | 15 kts | 124° |
| 2026-04-16 06:30 | 37.02067 | 25.11479 | 139 ft | 8 kts | 149° |
| 2026-04-16 06:30 | 37.02077 | 25.11516 | 139 ft | 6 kts | 355° |
| 2026-04-16 06:30 | 37.02090 | 25.11513 | 139 ft | 0 kts | 352° |